createdAt,value
2018-08-25T00:01:22.821Z,24.60
2018-08-25T00:03:50.301Z,24.60
2018-08-25T00:06:17.781Z,24.60
2018-08-25T00:08:45.250Z,24.60
2018-08-25T00:11:12.712Z,24.60
2018-08-25T00:13:40.184Z,24.60
2018-08-25T00:16:07.641Z,24.60
2018-08-25T00:18:35.114Z,24.60
2018-08-25T00:21:02.786Z,24.60
2018-08-25T00:23:30.253Z,24.60
2018-08-25T00:25:57.700Z,24.70
2018-08-25T00:28:25.172Z,24.60
2018-08-25T00:30:58.116Z,24.60
2018-08-25T00:33:25.601Z,24.60
2018-08-25T00:35:53.070Z,24.60
2018-08-25T00:38:20.545Z,24.60
2018-08-25T00:40:48.000Z,24.60
2018-08-25T00:43:15.521Z,24.60
2018-08-25T00:45:42.984Z,24.60
2018-08-25T00:48:10.441Z,24.60
2018-08-25T00:50:37.888Z,24.60
2018-08-25T00:53:05.362Z,24.60
2018-08-25T00:55:32.836Z,24.60
2018-08-25T00:58:00.292Z,24.60
2018-08-25T01:00:27.780Z,24.60
2018-08-25T01:02:55.236Z,24.60
2018-08-25T01:05:22.714Z,24.60
2018-08-25T01:07:50.181Z,24.60
2018-08-25T01:10:17.648Z,24.60
2018-08-25T01:12:45.121Z,24.60
2018-08-25T01:15:12.583Z,24.60
2018-08-25T01:17:40.071Z,24.60
2018-08-25T01:20:07.601Z,24.60
2018-08-25T01:22:35.253Z,24.60
2018-08-25T01:25:02.909Z,24.60
2018-08-25T01:27:30.390Z,24.60
2018-08-25T01:29:57.848Z,24.60
2018-08-25T01:32:25.304Z,24.60
2018-08-25T01:34:52.789Z,24.60
2018-08-25T01:37:20.281Z,24.60
2018-08-25T01:39:47.952Z,24.60
2018-08-25T01:42:20.405Z,24.60
2018-08-25T01:44:48.936Z,24.60
2018-08-25T01:47:16.397Z,24.60
2018-08-25T01:49:43.873Z,24.60
2018-08-25T01:52:11.337Z,24.60
2018-08-25T01:54:38.828Z,24.60
2018-08-25T01:57:06.308Z,24.60
2018-08-25T01:59:33.781Z,24.60
2018-08-25T02:02:01.353Z,24.60
2018-08-25T02:04:28.852Z,24.60
2018-08-25T02:06:56.352Z,24.60
2018-08-25T02:09:23.808Z,24.60
2018-08-25T02:11:51.272Z,24.60
2018-08-25T02:14:18.732Z,24.60
2018-08-25T02:16:46.196Z,24.60
2018-08-25T02:19:13.662Z,24.60
2018-08-25T02:21:41.140Z,24.60
2018-08-25T02:24:08.596Z,24.60
2018-08-25T02:26:36.056Z,24.60
2018-08-25T02:29:03.532Z,24.60
2018-08-25T02:31:30.993Z,24.50
2018-08-25T02:33:58.462Z,24.60
2018-08-25T02:36:25.929Z,24.60
2018-08-25T02:38:53.506Z,24.60
2018-08-25T02:41:21.014Z,24.60
2018-08-25T02:43:48.485Z,24.60
2018-08-25T02:46:15.945Z,24.60
2018-08-25T02:48:43.466Z,24.60
2018-08-25T02:51:10.925Z,24.50
2018-08-25T02:53:38.559Z,24.50
2018-08-25T02:56:06.036Z,24.50
2018-08-25T02:58:33.518Z,24.50
2018-08-25T03:01:00.988Z,24.60
2018-08-25T03:03:28.612Z,24.50
2018-08-25T03:05:56.064Z,24.50
2018-08-25T03:08:23.760Z,24.60
2018-08-25T03:10:51.432Z,24.50
2018-08-25T03:13:18.888Z,24.60
2018-08-25T03:15:46.356Z,24.50
2018-08-25T03:18:13.824Z,24.50
2018-08-25T03:20:41.283Z,24.50
2018-08-25T03:23:08.745Z,24.50
2018-08-25T03:25:36.216Z,24.50
2018-08-25T03:28:03.676Z,24.50
2018-08-25T03:30:31.136Z,24.50
2018-08-25T03:32:58.603Z,24.50
2018-08-25T03:35:26.076Z,24.50
2018-08-25T03:37:53.528Z,24.60
2018-08-25T03:40:21.011Z,24.50
2018-08-25T03:42:48.660Z,24.50
2018-08-25T03:45:16.112Z,24.50
2018-08-25T03:47:43.696Z,24.60
2018-08-25T03:50:11.165Z,24.50
2018-08-25T03:52:38.659Z,24.50
2018-08-25T03:55:06.181Z,24.50
2018-08-25T03:57:33.664Z,24.50
2018-08-25T04:00:01.372Z,24.50
2018-08-25T04:02:28.861Z,24.50
2018-08-25T04:04:56.349Z,24.50
2018-08-25T04:07:23.812Z,24.50
2018-08-25T04:09:51.296Z,24.50
2018-08-25T04:12:18.766Z,24.50
2018-08-25T04:14:46.241Z,24.50
2018-08-25T04:17:13.725Z,24.50
2018-08-25T04:19:41.189Z,24.50
2018-08-25T04:22:08.661Z,24.50
2018-08-25T04:24:36.270Z,24.50
2018-08-25T04:27:03.846Z,24.50
2018-08-25T04:29:31.383Z,24.50
2018-08-25T04:31:58.864Z,24.50
2018-08-25T04:34:26.332Z,24.60
2018-08-25T04:36:53.798Z,24.50
2018-08-25T04:39:21.320Z,24.50
2018-08-25T04:41:48.797Z,24.50
2018-08-25T04:44:16.275Z,24.50
2018-08-25T04:46:43.736Z,24.50
2018-08-25T04:49:11.242Z,24.50
2018-08-25T04:51:38.725Z,24.50
2018-08-25T04:54:06.221Z,24.50
2018-08-25T04:56:33.697Z,24.50
2018-08-25T04:59:01.185Z,24.50
2018-08-25T05:01:28.669Z,24.50
2018-08-25T05:03:56.149Z,24.50
2018-08-25T05:06:23.629Z,24.50
2018-08-25T05:08:51.117Z,24.50
2018-08-25T05:11:18.609Z,24.50
2018-08-25T05:13:46.088Z,24.50
2018-08-25T05:16:13.561Z,24.50
2018-08-25T05:18:41.054Z,24.50
2018-08-25T05:21:08.620Z,24.40
2018-08-25T05:23:36.089Z,24.40
2018-08-25T05:26:03.620Z,24.40
2018-08-25T05:28:31.087Z,24.50
2018-08-25T05:30:58.577Z,24.50
2018-08-25T05:33:26.052Z,24.40
2018-08-25T05:35:53.555Z,24.40
2018-08-25T05:38:21.021Z,24.40
2018-08-25T05:40:48.506Z,24.50
2018-08-25T05:43:16.002Z,24.40
2018-08-25T05:45:43.605Z,24.40
2018-08-25T05:48:11.105Z,24.40
2018-08-25T05:50:38.588Z,24.40
2018-08-25T05:53:06.626Z,24.40
2018-08-25T05:55:34.100Z,24.40
2018-08-25T05:58:01.590Z,24.40
2018-08-25T06:00:29.083Z,24.40
2018-08-25T06:02:56.609Z,24.40
2018-08-25T06:05:24.468Z,24.40
2018-08-25T06:07:52.466Z,24.40
2018-08-25T06:10:19.969Z,24.40
2018-08-25T06:12:47.526Z,24.40
2018-08-25T06:15:15.080Z,24.30
2018-08-25T06:17:43.261Z,24.00
2018-08-25T06:20:10.713Z,23.70
2018-08-25T06:22:38.317Z,23.50
2018-08-25T06:25:06.708Z,23.20
2018-08-25T06:27:34.284Z,23.00
2018-08-25T06:30:02.109Z,22.90
2018-08-25T06:32:29.740Z,22.80
2018-08-25T06:34:57.212Z,22.70
2018-08-25T06:37:24.692Z,22.60
2018-08-25T06:39:52.368Z,22.50
2018-08-25T06:42:19.892Z,22.40
2018-08-25T06:44:47.357Z,22.30
2018-08-25T06:47:15.484Z,22.30
2018-08-25T06:49:43.036Z,22.30
2018-08-25T06:52:10.537Z,22.20
2018-08-25T06:54:38.084Z,22.10
2018-08-25T06:57:06.809Z,22.10
2018-08-25T06:59:34.367Z,22.10
2018-08-25T07:02:01.841Z,22.00
2018-08-25T07:04:29.305Z,22.00
2018-08-25T07:06:56.802Z,22.00
2018-08-25T07:09:24.273Z,22.10
2018-08-25T07:11:51.749Z,22.00
2018-08-25T07:14:19.282Z,22.00
2018-08-25T07:16:46.744Z,22.00
2018-08-25T07:19:14.360Z,22.00
2018-08-25T07:21:41.847Z,22.00
2018-08-25T07:24:09.317Z,22.00
2018-08-25T07:26:36.813Z,22.10
2018-08-25T07:29:04.281Z,22.10
2018-08-25T07:31:31.760Z,22.10
2018-08-25T07:33:59.485Z,22.10
2018-08-25T07:36:27.271Z,22.20
2018-08-25T07:38:54.791Z,22.20
2018-08-25T07:41:22.252Z,22.20
2018-08-25T07:43:50.812Z,22.30
2018-08-25T07:46:18.907Z,22.30
2018-08-25T07:48:46.681Z,22.30
2018-08-25T07:51:14.191Z,22.30
2018-08-25T07:53:41.885Z,22.20
2018-08-25T07:56:09.678Z,22.20
2018-08-25T07:58:37.200Z,22.20
2018-08-25T08:01:04.992Z,22.20
2018-08-25T08:03:32.626Z,22.20
2018-08-25T08:06:00.136Z,22.30
2018-08-25T08:08:27.997Z,22.50
2018-08-25T08:10:55.515Z,22.70
2018-08-25T08:13:23.335Z,22.80
2018-08-25T08:15:50.798Z,22.90
2018-08-25T08:18:18.947Z,22.90
2018-08-25T08:20:46.701Z,23.00
2018-08-25T08:23:14.425Z,22.90
2018-08-25T08:25:42.132Z,22.90
2018-08-25T08:28:09.824Z,22.80
2018-08-25T08:30:37.537Z,22.80
2018-08-25T08:33:05.344Z,22.70
2018-08-25T08:35:32.773Z,22.70
2018-08-25T08:38:00.458Z,22.60
2018-08-25T08:40:28.242Z,22.60
2018-08-25T08:42:55.917Z,22.60
2018-08-25T08:45:23.684Z,22.60
2018-08-25T08:47:51.396Z,22.60
2018-08-25T08:50:19.150Z,22.50
2018-08-25T08:52:47.147Z,22.60
2018-08-25T08:55:14.790Z,22.60
2018-08-25T08:57:42.337Z,22.70
2018-08-25T09:00:09.926Z,22.80
2018-08-25T09:02:38.482Z,22.90
2018-08-25T09:05:06.234Z,22.90
2018-08-25T09:07:33.857Z,22.80
2018-08-25T09:10:01.599Z,22.70
2018-08-25T09:12:29.264Z,22.60
2018-08-25T09:14:56.825Z,22.50
2018-08-25T09:17:24.924Z,22.50
2018-08-25T09:19:52.476Z,22.40
2018-08-25T09:22:20.155Z,22.40
2018-08-25T09:24:48.014Z,22.30
2018-08-25T09:27:16.469Z,22.30
2018-08-25T09:29:44.174Z,22.30
2018-08-25T09:32:12.694Z,22.20
2018-08-25T09:34:40.258Z,22.20
2018-08-25T09:37:07.975Z,22.10
2018-08-25T09:39:35.724Z,22.10
2018-08-25T09:42:03.573Z,22.10
2018-08-25T09:44:31.442Z,22.00
2018-08-25T09:46:59.252Z,22.00
2018-08-25T09:49:26.821Z,22.00
2018-08-25T09:51:54.733Z,22.00
2018-08-25T09:54:22.264Z,22.00
2018-08-25T09:56:50.086Z,22.00
2018-08-25T09:59:17.709Z,22.00
2018-08-25T10:01:50.864Z,21.90
2018-08-25T10:04:18.642Z,21.90
2018-08-25T10:06:46.289Z,22.00
2018-08-25T10:09:14.224Z,22.00
2018-08-25T10:11:42.396Z,21.90
2018-08-25T10:14:10.064Z,22.10
2018-08-25T10:16:37.856Z,22.20
2018-08-25T10:19:05.652Z,22.30
2018-08-25T10:21:33.231Z,22.40
2018-08-25T10:24:00.975Z,22.50
2018-08-25T10:26:28.493Z,22.60
2018-08-25T10:28:56.835Z,22.70
2018-08-25T10:31:24.799Z,22.70
2018-08-25T10:33:52.449Z,22.80
2018-08-25T10:36:20.889Z,22.80
2018-08-25T10:38:48.525Z,22.80
2018-08-25T10:41:16.689Z,22.90
2018-08-25T10:43:44.348Z,22.90
2018-08-25T10:46:11.857Z,22.90
2018-08-25T10:48:39.488Z,22.90
2018-08-25T10:51:07.004Z,23.00
2018-08-25T10:53:34.703Z,23.00
2018-08-25T10:56:03.792Z,23.00
2018-08-25T10:58:31.336Z,23.00
2018-08-25T11:00:59.100Z,23.00
2018-08-25T11:03:26.472Z,23.10
2018-08-25T11:05:53.965Z,23.00
2018-08-25T11:08:21.600Z,23.00
2018-08-25T11:10:49.385Z,23.10
2018-08-25T11:13:17.052Z,23.00
2018-08-25T11:15:44.584Z,23.00
2018-08-25T11:18:12.221Z,23.00
2018-08-25T11:20:40.078Z,23.00
2018-08-25T11:23:07.628Z,23.00
2018-08-25T11:25:35.380Z,23.10
2018-08-25T11:28:03.037Z,23.10
2018-08-25T11:30:30.629Z,23.00
2018-08-25T11:32:58.252Z,23.10
2018-08-25T11:35:25.829Z,23.10
2018-08-25T11:37:53.549Z,23.10
2018-08-25T11:40:21.102Z,23.10
2018-08-25T11:42:48.970Z,23.10
2018-08-25T11:45:16.759Z,23.10
2018-08-25T11:47:44.494Z,23.10
2018-08-25T11:50:12.064Z,23.10
2018-08-25T11:52:39.771Z,23.10
2018-08-25T11:55:07.470Z,23.10
2018-08-25T11:57:35.136Z,23.10
2018-08-25T12:00:02.916Z,23.00
2018-08-25T12:02:30.585Z,23.00
2018-08-25T12:04:58.196Z,23.00
2018-08-25T12:07:26.016Z,23.00
2018-08-25T12:09:53.613Z,23.00
2018-08-25T12:12:21.172Z,23.00
2018-08-25T12:14:48.786Z,23.10
2018-08-25T12:17:16.437Z,23.10
2018-08-25T12:19:43.993Z,23.10
2018-08-25T12:22:11.621Z,23.10
2018-08-25T12:24:39.276Z,23.10
2018-08-25T12:27:06.872Z,23.10
2018-08-25T12:29:34.729Z,23.10
2018-08-25T12:32:02.337Z,23.20
2018-08-25T12:34:29.861Z,23.20
2018-08-25T12:36:57.711Z,23.10
2018-08-25T12:39:25.318Z,23.20
2018-08-25T12:41:53.181Z,23.20
2018-08-25T12:44:20.700Z,23.20
2018-08-25T12:46:48.312Z,23.20
2018-08-25T12:49:16.720Z,23.20
2018-08-25T12:51:44.278Z,23.30
2018-08-25T12:54:11.800Z,23.20
2018-08-25T12:56:39.393Z,23.20
2018-08-25T12:59:07.111Z,23.20
2018-08-25T13:01:34.709Z,23.20
2018-08-25T13:04:02.261Z,23.20
2018-08-25T13:06:29.920Z,23.20
2018-08-25T13:08:57.544Z,23.30
2018-08-25T13:11:25.232Z,23.20
2018-08-25T13:13:52.829Z,23.20
2018-08-25T13:16:20.393Z,23.20
2018-08-25T13:18:47.910Z,23.20
2018-08-25T13:21:15.368Z,23.20
2018-08-25T13:23:42.867Z,23.20
2018-08-25T13:26:10.363Z,23.20
2018-08-25T13:28:37.889Z,23.10
2018-08-25T13:31:05.497Z,23.10
2018-08-25T13:33:33.888Z,23.20
2018-08-25T13:36:01.363Z,23.20
2018-08-25T13:38:29.068Z,23.20
2018-08-25T13:40:56.572Z,23.20
2018-08-25T13:43:24.074Z,23.10
2018-08-25T13:45:51.573Z,23.10
2018-08-25T13:48:20.114Z,23.10
2018-08-25T13:50:47.608Z,23.10
2018-08-25T13:53:15.100Z,23.20
2018-08-25T13:55:42.589Z,23.10
2018-08-25T13:58:10.081Z,23.20
2018-08-25T14:00:37.549Z,23.10
2018-08-25T14:03:05.241Z,23.00
2018-08-25T14:05:33.056Z,23.00
2018-08-25T14:08:00.584Z,23.00
2018-08-25T14:10:28.196Z,23.00
2018-08-25T14:12:55.880Z,23.00
2018-08-25T14:15:23.502Z,23.10
2018-08-25T14:17:51.078Z,23.20
2018-08-25T14:20:18.582Z,23.20
2018-08-25T14:22:46.061Z,23.10
2018-08-25T14:25:13.694Z,23.00
2018-08-25T14:27:41.475Z,23.00
2018-08-25T14:30:08.953Z,23.00
2018-08-25T14:32:36.452Z,23.00
2018-08-25T14:35:04.027Z,23.00
2018-08-25T14:37:31.520Z,22.90
2018-08-25T14:39:58.996Z,22.90
2018-08-25T14:42:26.484Z,22.90
2018-08-25T14:44:54.008Z,22.90
2018-08-25T14:47:21.830Z,22.90
2018-08-25T14:49:49.252Z,22.90
2018-08-25T14:52:16.733Z,23.00
2018-08-25T14:54:44.200Z,23.00
2018-08-25T14:57:11.697Z,23.10
2018-08-25T14:59:39.168Z,23.00
2018-08-25T15:02:06.873Z,23.00
2018-08-25T15:04:34.440Z,22.90
2018-08-25T15:07:02.637Z,22.90
2018-08-25T15:09:30.478Z,22.80
2018-08-25T15:11:58.048Z,22.80
2018-08-25T15:14:25.601Z,22.80
2018-08-25T15:16:53.197Z,22.90
2018-08-25T15:19:20.736Z,22.90
2018-08-25T15:21:48.208Z,22.90
2018-08-25T15:24:15.913Z,23.00
2018-08-25T15:26:43.464Z,23.00
2018-08-25T15:29:10.949Z,23.00
2018-08-25T15:31:38.417Z,23.10
2018-08-25T15:34:06.686Z,23.10
2018-08-25T15:36:34.353Z,23.10
2018-08-25T15:39:01.893Z,23.10
2018-08-25T15:41:29.357Z,23.10
2018-08-25T15:43:56.840Z,23.10
2018-08-25T15:46:24.315Z,23.20
2018-08-25T15:48:51.825Z,23.20
2018-08-25T15:51:19.429Z,23.20
2018-08-25T15:53:47.021Z,23.20
2018-08-25T15:56:14.542Z,23.00
2018-08-25T15:58:42.030Z,22.90
2018-08-25T16:01:09.533Z,22.70
2018-08-25T16:03:37.198Z,22.60
2018-08-25T16:06:04.748Z,22.50
2018-08-25T16:08:32.183Z,22.50
2018-08-25T16:10:59.668Z,22.40
2018-08-25T16:13:27.419Z,22.30
2018-08-25T16:15:54.893Z,22.30
2018-08-25T16:18:22.529Z,22.30
2018-08-25T16:20:50.016Z,22.20
2018-08-25T16:23:17.505Z,22.20
2018-08-25T16:25:44.987Z,22.20
2018-08-25T16:28:12.473Z,22.20
2018-08-25T16:30:39.964Z,22.10
2018-08-25T16:33:07.963Z,22.10
2018-08-25T16:35:35.501Z,22.10
2018-08-25T16:38:02.982Z,22.10
2018-08-25T16:40:30.471Z,22.10
2018-08-25T16:42:57.959Z,22.10
2018-08-25T16:45:25.497Z,22.10
2018-08-25T16:47:53.041Z,22.10
2018-08-25T16:50:20.679Z,22.10
2018-08-25T16:52:48.352Z,22.00
2018-08-25T16:55:15.992Z,22.00
2018-08-25T16:57:43.576Z,22.00
2018-08-25T17:00:11.100Z,22.00
2018-08-25T17:02:38.604Z,22.00
2018-08-25T17:05:06.087Z,22.00
2018-08-25T17:07:33.552Z,22.00
2018-08-25T17:10:01.080Z,21.90
2018-08-25T17:12:28.560Z,21.80
2018-08-25T17:14:56.225Z,21.60
2018-08-25T17:17:23.717Z,21.50
2018-08-25T17:19:51.212Z,21.40
2018-08-25T17:22:18.853Z,21.30
2018-08-25T17:24:46.389Z,21.20
2018-08-25T17:27:13.867Z,21.20
2018-08-25T17:29:41.362Z,21.20
2018-08-25T17:32:08.887Z,21.20
2018-08-25T17:34:36.406Z,21.20
2018-08-25T17:37:03.944Z,21.30
2018-08-25T17:39:31.656Z,21.30
2018-08-25T17:41:59.127Z,21.20
2018-08-25T17:44:26.632Z,21.30
2018-08-25T17:46:54.110Z,21.40
2018-08-25T17:49:21.663Z,21.60
2018-08-25T17:51:49.214Z,21.80
2018-08-25T17:54:17.206Z,21.90
2018-08-25T17:56:44.712Z,22.10
2018-08-25T17:59:12.186Z,22.20
2018-08-25T18:01:39.789Z,22.30
2018-08-25T18:04:07.277Z,22.30
2018-08-25T18:06:34.860Z,22.40
2018-08-25T18:09:02.657Z,22.40
2018-08-25T18:11:30.629Z,22.50
2018-08-25T18:13:58.118Z,22.50
2018-08-25T18:16:25.703Z,22.60
2018-08-25T18:18:53.333Z,22.60
2018-08-25T18:21:20.822Z,22.60
2018-08-25T18:23:48.350Z,22.70
2018-08-25T18:26:15.831Z,22.70
2018-08-25T18:28:43.340Z,22.70
2018-08-25T18:31:10.821Z,22.70
2018-08-25T18:33:38.299Z,22.70
2018-08-25T18:36:05.804Z,22.80
2018-08-25T18:38:33.300Z,22.80
2018-08-25T18:41:00.964Z,22.80
2018-08-25T18:43:28.704Z,22.80
2018-08-25T18:45:56.224Z,22.80
2018-08-25T18:48:23.891Z,22.80
2018-08-25T18:50:51.421Z,22.90
2018-08-25T18:53:18.981Z,22.80
2018-08-25T18:55:46.612Z,22.90
2018-08-25T18:58:14.532Z,22.90
2018-08-25T19:00:42.165Z,22.90
2018-08-25T19:03:09.826Z,22.90
2018-08-25T19:05:37.344Z,22.90
2018-08-25T19:08:04.812Z,22.90
2018-08-25T19:10:32.622Z,22.90
2018-08-25T19:13:00.136Z,22.90
2018-08-25T19:15:27.836Z,22.90
2018-08-25T19:17:55.319Z,22.90
2018-08-25T19:20:22.880Z,22.90
2018-08-25T19:22:50.414Z,22.90
2018-08-25T19:25:18.084Z,22.90
2018-08-25T19:27:45.580Z,23.00
2018-08-25T19:30:13.064Z,23.00
2018-08-25T19:32:40.914Z,22.90
2018-08-25T19:35:09.668Z,22.90
2018-08-25T19:37:37.174Z,22.90
2018-08-25T19:40:04.651Z,22.90
2018-08-25T19:42:32.328Z,22.90
2018-08-25T19:45:00.233Z,22.90
2018-08-25T19:47:27.717Z,22.90
2018-08-25T19:49:55.197Z,22.90
2018-08-25T19:52:22.859Z,22.90
2018-08-25T19:54:50.344Z,23.00
2018-08-25T19:57:17.817Z,23.00
2018-08-25T19:59:45.305Z,23.00
2018-08-25T20:02:12.817Z,23.00
2018-08-25T20:04:40.396Z,23.00
2018-08-25T20:07:07.883Z,23.00
2018-08-25T20:09:35.420Z,23.00
2018-08-25T20:12:03.019Z,22.90
2018-08-25T20:14:30.556Z,23.00
2018-08-25T20:16:58.155Z,23.00
2018-08-25T20:19:25.722Z,23.00
2018-08-25T20:21:53.380Z,23.00
2018-08-25T20:24:20.976Z,23.00
2018-08-25T20:26:48.547Z,23.00
2018-08-25T20:29:16.036Z,23.00
2018-08-25T20:31:43.605Z,23.00
2018-08-25T20:34:11.182Z,23.00
2018-08-25T20:36:38.720Z,23.00
2018-08-25T20:39:06.627Z,23.00
2018-08-25T20:41:34.158Z,23.00
2018-08-25T20:44:01.617Z,23.00
2018-08-25T20:46:29.089Z,23.00
2018-08-25T20:48:56.714Z,23.00
2018-08-25T20:51:24.233Z,23.00
2018-08-25T20:53:51.694Z,23.00
2018-08-25T20:56:19.168Z,23.00
2018-08-25T20:58:46.665Z,23.00
2018-08-25T21:01:14.156Z,23.00
2018-08-25T21:03:41.628Z,23.00
2018-08-25T21:06:09.128Z,23.00
2018-08-25T21:08:36.609Z,23.00
2018-08-25T21:11:04.083Z,23.00
2018-08-25T21:13:31.557Z,23.00
2018-08-25T21:15:59.071Z,23.00
2018-08-25T21:18:26.644Z,23.00
2018-08-25T21:20:54.112Z,23.00
2018-08-25T21:23:21.568Z,23.00
2018-08-25T21:25:49.032Z,23.00
2018-08-25T21:28:16.510Z,23.00
2018-08-25T21:30:44.121Z,23.00
2018-08-25T21:33:11.649Z,23.00
2018-08-25T21:35:39.256Z,23.00
2018-08-25T21:38:06.720Z,23.00
2018-08-25T21:40:34.180Z,23.00
2018-08-25T21:43:01.647Z,23.00
2018-08-25T21:45:29.160Z,23.00
2018-08-25T21:47:56.632Z,23.00
2018-08-25T21:50:24.100Z,23.00
2018-08-25T21:52:51.615Z,23.00
2018-08-25T21:55:19.091Z,23.00
2018-08-25T21:57:46.565Z,23.00
2018-08-25T22:00:14.028Z,23.00
2018-08-25T22:02:41.508Z,23.00
2018-08-25T22:05:08.965Z,23.00
2018-08-25T22:07:36.568Z,23.00
2018-08-25T22:10:04.039Z,23.00
2018-08-25T22:12:31.513Z,23.00
2018-08-25T22:14:58.990Z,23.00
2018-08-25T22:17:26.453Z,23.00
2018-08-25T22:19:53.916Z,23.00
2018-08-25T22:22:21.409Z,23.00
2018-08-25T22:24:48.888Z,23.00
2018-08-25T22:27:16.392Z,23.00
2018-08-25T22:29:43.856Z,23.00
2018-08-25T22:32:11.333Z,23.00
2018-08-25T22:34:38.821Z,23.00
2018-08-25T22:37:06.312Z,23.00
2018-08-25T22:39:33.808Z,23.00
2018-08-25T22:42:01.300Z,23.00
2018-08-25T22:44:28.784Z,23.00
2018-08-25T22:46:56.265Z,23.00
2018-08-25T22:49:23.901Z,23.00
2018-08-25T22:51:51.410Z,23.00
2018-08-25T22:54:18.872Z,23.00
2018-08-25T22:56:46.377Z,23.00
2018-08-25T22:59:13.836Z,23.00
2018-08-25T23:01:41.309Z,23.00
2018-08-25T23:04:08.781Z,23.00
2018-08-25T23:06:36.244Z,23.00
2018-08-25T23:09:05.364Z,23.00
2018-08-25T23:11:32.829Z,23.00
2018-08-25T23:14:00.289Z,23.00
2018-08-25T23:16:27.945Z,23.00
2018-08-25T23:18:55.401Z,23.00
2018-08-25T23:21:22.857Z,23.00
2018-08-25T23:23:50.389Z,23.00
2018-08-25T23:26:17.869Z,23.00
2018-08-25T23:28:45.341Z,23.00
2018-08-25T23:31:12.795Z,23.00
2018-08-25T23:33:40.332Z,23.00
2018-08-25T23:36:07.804Z,23.00
2018-08-25T23:38:35.265Z,23.00
2018-08-25T23:41:02.723Z,23.00
2018-08-25T23:43:30.185Z,23.00
2018-08-25T23:45:57.641Z,23.00
2018-08-25T23:48:25.141Z,23.00
2018-08-25T23:50:52.595Z,23.00
2018-08-25T23:53:20.057Z,23.00
2018-08-25T23:55:47.573Z,23.00
2018-08-25T23:58:15.025Z,23.00
